Horse Creek, Wyoming
Current Conditions -  °F | °C
As of 2:56 PM on Friday 31 Oct 2014 (Local Time) from KFEW Reporting Station
Clear Clear  
Wind Chill: 50°   Ceiling: Unl
Heat Index: 50°   Visibility: 10mi
Dew Point: 27°   Wind: 18mph
Humidity: 40%   Direction: 190°S
Pressure: 30.12"   Gusts: 23mph
Location:  41.41°N, 105.18°W
Report Text: KFEW 312056Z AUTO 19016G20KT 10SM CLR 10/M03 A3012 RMK AO2 SLP191 T01011029 57028 $
Loading
Personal Weather Stations






























Interactive Weather Map
Tropical Storm Tracking
New forecast layout! Learn more

10-Day Weather Forecast

Advertisements
Track Severe Weather on mobile